^^
Lisbon, NH - Weather Station Historical Data
Daily Summary for August 13, 2021 Units:  English    Metric   Both
Daily Weekly Monthly Yearly
  High: Low: Average:
Temperature: 90.7 °F 70.3 °F 78.4 °F
Dew Point: 75.6 °F 66.6 °F 71.9 °F
Humidity: 100% 48.6% 83%
Wind Speed: 3.5mph 0mph 0.5mph
Wind Gust: 10mph - -
Wind- - South
Pressure: 29.97 in 29.86 in -
Precipitation: 0.00 in    
 
 
Tabular Data for August 13, 2021
Time Temperature Dew Point Pressure Wind Wind Speed Wind Gust Humidity Rainfall Rate (Hourly) solar
00:04 73 °F 72.9 °F 29.86 in Calm     99.6% 0.00 in 0 W/m2
00:09 72.8 °F 72.8 °F 29.86 in Calm     100% 0.00 in 0 W/m2
00:14 72.7 °F 72.8 °F 29.87 in Calm     100% 0.00 in 0 W/m2
00:19 72.7 °F 72.7 °F 29.87 in Calm     100% 0.00 in 0 W/m2
00:24 72.7 °F 72.7 °F 29.87 in Calm     100% 0.00 in 0 W/m2
00:29 72.7 °F 72.7 °F 29.88 in Calm     100% 0.00 in 0 W/m2
00:34 72.8 °F 72.8 °F 29.88 in Calm     100% 0.00 in 0 W/m2
00:39 72.7 °F 72.8 °F 29.88 in Calm     100% 0.00 in 0 W/m2
00:44 72.6 °F 72.6 °F 29.88 in Calm     100% 0.00 in 0 W/m2
00:49 72.5 °F 72.5 °F 29.88 in Calm     100% 0.00 in 0 W/m2
00:54 72.3 °F 72.3 °F 29.88 in Calm     100% 0.00 in 0 W/m2
00:59 72.3 °F 72.3 °F 29.88 in Calm     100% 0.00 in 0 W/m2
01:04 72.1 °F 72.2 °F 29.88 in Calm     100% 0.00 in 0 W/m2
01:09 72.1 °F 72.1 °F 29.88 in Calm     100% 0.00 in 0 W/m2
01:14 72.1 °F 72.1 °F 29.88 in Calm     100% 0.00 in 0 W/m2
01:19 72.2 °F 72.2 °F 29.88 in Calm     100% 0.00 in 0 W/m2
01:24 72.3 °F 72.3 °F 29.88 in Calm     100% 0.00 in 0 W/m2
01:29 72.2 °F 72.2 °F 29.89 in Calm     100% 0.00 in 0 W/m2
01:34 72.1 °F 72.1 °F 29.89 in Calm     100% 0.00 in 0 W/m2
01:39 72.1 °F 72.1 °F 29.89 in Calm     100% 0.00 in 0 W/m2
01:44 72.1 °F 72.1 °F 29.89 in Calm     100% 0.00 in 0 W/m2
01:49 72.1 °F 72.1 °F 29.89 in Calm     100% 0.00 in 0 W/m2
01:54 72 °F 72 °F 29.89 in Calm     100% 0.00 in 0 W/m2
01:59 71.9 °F 71.9 °F 29.89 in Calm     100% 0.00 in 0 W/m2
02:04 71.8 °F 71.8 °F 29.89 in Calm     100% 0.00 in 0 W/m2
02:09 71.8 °F 71.8 °F 29.89 in Calm     100% 0.00 in 0 W/m2
02:14 71.8 °F 71.8 °F 29.89 in Calm     100% 0.00 in 0 W/m2
02:19 71.7 °F 71.7 °F 29.89 in Calm     100% 0.00 in 0 W/m2
02:24 71.6 °F 71.6 °F 29.89 in Calm     100% 0.00 in 0 W/m2
02:29 71.6 °F 71.6 °F 29.90 in Calm     100% 0.00 in 0 W/m2
02:34 71.4 °F 71.4 °F 29.90 in Calm     100% 0.00 in 0 W/m2
02:39 71.2 °F 71.2 °F 29.90 in Calm     100% 0.00 in 0 W/m2
02:44 71.1 °F 71.1 °F 29.90 in Calm     100% 0.00 in 0 W/m2
02:49 71.1 °F 71.1 °F 29.90 in Calm     100% 0.00 in 0 W/m2
02:54 71.1 °F 71.1 °F 29.90 in Calm     100% 0.00 in 0 W/m2
02:59 71.1 °F 71.1 °F 29.90 in Calm     100% 0.00 in 0 W/m2
03:04 71.1 °F 71.1 °F 29.90 in Calm     100% 0.00 in 0 W/m2
03:09 71.1 °F 71.1 °F 29.90 in Calm     100% 0.00 in 0 W/m2
03:14 71.2 °F 71.2 °F 29.91 in Calm     100% 0.00 in 0 W/m2
03:19 71.3 °F 71.3 °F 29.91 in Calm     100% 0.00 in 0 W/m2
03:24 71.3 °F 71.3 °F 29.91 in Calm     100% 0.00 in 0 W/m2
03:29 71.1 °F 71.1 °F 29.91 in Calm     100% 0.00 in 0 W/m2
03:34 71.1 °F 71.1 °F 29.91 in Calm     100% 0.00 in 0 W/m2
03:39 71.1 °F 71.1 °F 29.91 in Calm     100% 0.00 in 0 W/m2
03:44 71.1 °F 71.1 °F 29.91 in Calm     100% 0.00 in 0 W/m2
03:49 71.1 °F 71.1 °F 29.91 in Calm     100% 0.00 in 0 W/m2
03:54 71.1 °F 71.1 °F 29.91 in Calm     100% 0.00 in 0 W/m2
03:59 70.9 °F 70.9 °F 29.92 in Calm     100% 0.00 in 0 W/m2
04:04 70.9 °F 70.9 °F 29.92 in Calm     100% 0.00 in 0 W/m2
04:09 70.8 °F 70.8 °F 29.92 in Calm     100% 0.00 in 0 W/m2
04:14 70.8 °F 70.8 °F 29.92 in Calm     100% 0.00 in 0 W/m2
04:19 70.7 °F 70.7 °F 29.92 in Calm     100% 0.00 in 0 W/m2
04:24 70.8 °F 70.8 °F 29.92 in Calm     100% 0.00 in 0 W/m2
04:29 70.7 °F 70.7 °F 29.92 in Calm     100% 0.00 in 0 W/m2
04:34 70.6 °F 70.6 °F 29.92 in Calm     100% 0.00 in 0 W/m2
04:39 70.6 °F 70.6 °F 29.92 in Calm     100% 0.00 in 0 W/m2
04:44 70.4 °F 70.4 °F 29.92 in Calm     100% 0.00 in 0 W/m2
04:49 70.4 °F 70.4 °F 29.92 in Calm     100% 0.00 in 0 W/m2
04:54 70.4 °F 70.4 °F 29.92 in Calm     100% 0.00 in 0 W/m2
04:59 70.4 °F 70.4 °F 29.93 in Calm     100% 0.00 in 0 W/m2
05:04 70.4 °F 70.4 °F 29.93 in Calm     100% 0.00 in 0 W/m2
05:09 70.3 °F 70.3 °F 29.93 in Calm     100% 0.00 in 0 W/m2
05:14 70.3 °F 70.3 °F 29.93 in Calm     100% 0.00 in 0 W/m2
05:19 70.3 °F 70.3 °F 29.93 in Calm     100% 0.00 in 0 W/m2
05:24 70.3 °F 70.3 °F 29.93 in Calm     100% 0.00 in 0 W/m2
05:29 70.4 °F 70.4 °F 29.93 in Calm     100% 0.00 in 0 W/m2
05:34 70.4 °F 70.4 °F 29.93 in Calm     100% 0.00 in 0 W/m2
05:39 70.5 °F 70.5 °F 29.93 in Calm     100% 0.00 in 0 W/m2
05:44 70.6 °F 70.6 °F 29.93 in NE 0.2 mph 2 mph 100% 0.00 in 5 W/m2
05:49 70.6 °F 70.6 °F 29.93 in NE 0.1 mph 1 mph 100% 0.00 in 5 W/m2
05:54 70.6 °F 70.6 °F 29.93 in Calm   1 mph 100% 0.00 in 7 W/m2
05:59 70.9 °F 70.9 °F 29.93 in Calm     100% 0.00 in 7 W/m2
06:04 70.9 °F 70.9 °F 29.93 in NE 0.2 mph 1 mph 100% 0.00 in 9 W/m2
06:09 70.8 °F 70.8 °F 29.93 in NE 0.3 mph 1 mph 100% 0.00 in 9 W/m2
06:14 70.8 °F 70.8 °F 29.94 in NE 0.8 mph 2 mph 100% 0.00 in 11 W/m2
06:19 70.8 °F 70.8 °F 29.94 in NE 0.5 mph 2 mph 100% 0.00 in 14 W/m2
06:24 70.8 °F 70.8 °F 29.94 in ENE 0.8 mph 2 mph 100% 0.00 in 16 W/m2
06:29 70.8 °F 70.8 °F 29.94 in ENE 1.5 mph 3 mph 100% 0.00 in 21 W/m2
06:34 70.7 °F 70.7 °F 29.94 in ENE 0.7 mph 3 mph 100% 0.00 in 26 W/m2
06:39 70.6 °F 70.6 °F 29.94 in NE 1.1 mph 3 mph 100% 0.00 in 30 W/m2
06:44 70.6 °F 70.6 °F 29.95 in ENE 1.3 mph 3 mph 100% 0.00 in 35 W/m2
06:49 70.6 °F 70.6 °F 29.95 in ENE 0.8 mph 2 mph 100% 0.00 in 33 W/m2
06:54 70.6 °F 70.6 °F 29.95 in ENE 0.5 mph 2 mph 100% 0.00 in 35 W/m2
06:59 70.6 °F 70.6 °F 29.95 in NE 0.2 mph 1 mph 100% 0.00 in 40 W/m2
07:04 70.6 °F 70.6 °F 29.95 in NE 0.2 mph 2 mph 100% 0.00 in 48 W/m2
07:09 70.6 °F 70.6 °F 29.95 in Calm     100% 0.00 in 46 W/m2
07:14 70.8 °F 70.8 °F 29.95 in Calm     100% 0.00 in 48 W/m2
07:19 70.8 °F 70.8 °F 29.95 in Calm     100% 0.00 in 53 W/m2
07:24 70.9 °F 70.9 °F 29.95 in Calm     100% 0.00 in 53 W/m2
07:29 70.9 °F 70.9 °F 29.96 in NE 0.1 mph 1 mph 100% 0.00 in 58 W/m2
07:39 71.1 °F 71.1 °F 29.96 in ENE 0.3 mph 1 mph 100% 0.00 in 65 W/m2
07:44 71.1 °F 71.1 °F 29.96 in Calm     100% 0.00 in 69 W/m2
07:49 71.1 °F 71.1 °F 29.96 in Calm     100% 0.00 in 99 W/m2
07:54 71.3 °F 71.3 °F 29.96 in Calm   1 mph 100% 0.00 in 114 W/m2
07:59 71.3 °F 71.3 °F 29.96 in ENE 0.6 mph 2 mph 100% 0.00 in 123 W/m2
08:04 71.3 °F 71.3 °F 29.96 in NE 1.1 mph 2 mph 100% 0.00 in 121 W/m2
08:09 71.4 °F 71.4 °F 29.96 in NE 0.6 mph 2 mph 100% 0.00 in 132 W/m2
08:14 71.4 °F 71.4 °F 29.96 in NE 0.8 mph 2 mph 100% 0.00 in 174 W/m2
08:19 71.6 °F 71.6 °F 29.96 in East 1.1 mph 2 mph 100% 0.00 in 176 W/m2
08:24 71.5 °F 71.5 °F 29.96 in East 0.5 mph 2 mph 100% 0.00 in 169 W/m2
08:29 71.5 °F 71.5 °F 29.96 in East 0.5 mph 2 mph 100% 0.00 in 157 W/m2
08:34 71.7 °F 71.7 °F 29.96 in East 0.6 mph 2 mph 100% 0.00 in 153 W/m2
08:39 71.9 °F 71.9 °F 29.96 in East 0.3 mph 2 mph 100% 0.00 in 185 W/m2
08:44 72.1 °F 72.1 °F 29.96 in ESE 0.3 mph 1 mph 100% 0.00 in 192 W/m2
08:49 72.3 °F 72.3 °F 29.96 in SSE 0.6 mph 1 mph 100% 0.00 in 241 W/m2
08:54 72.4 °F 72.4 °F 29.96 in South 0.5 mph 2 mph 100% 0.00 in 273 W/m2
08:59 72.8 °F 72.8 °F 29.96 in SSW 2.3 mph 5 mph 100% 0.00 in 267 W/m2
09:04 73.1 °F 73.1 °F 29.96 in SSW 2.2 mph 5 mph 100% 0.00 in 373 W/m2
09:09 73.2 °F 73.2 °F 29.96 in SSW 1.6 mph 5 mph 100% 0.00 in 545 W/m2
09:14 73.6 °F 73.7 °F 29.97 in SSW 1.9 mph 4 mph 100% 0.00 in 554 W/m2
09:19 74.2 °F 74.2 °F 29.97 in SSW 1.4 mph 3 mph 100% 0.00 in 551 W/m2
09:24 74.8 °F 74.8 °F 29.97 in South 1.5 mph 5 mph 100% 0.00 in 584 W/m2
09:29 75.3 °F 75.3 °F 29.97 in South 2.3 mph 5 mph 100% 0.00 in 598 W/m2
09:34 75.7 °F 75.6 °F 29.97 in SSW 1.9 mph 6 mph 99.5% 0.00 in 605 W/m2
09:39 76.4 °F 75.4 °F 29.97 in SSW 1.8 mph 6 mph 97% 0.00 in 626 W/m2
09:44 77 °F 75.1 °F 29.97 in SSW 2 mph 5 mph 94.1% 0.00 in 635 W/m2
09:49 77.5 °F 74.8 °F 29.97 in SSW 2.4 mph 6 mph 91.5% 0.00 in 651 W/m2
09:54 77.9 °F 74.5 °F 29.97 in SSW 1.8 mph 6 mph 89.2% 0.00 in 667 W/m2
09:59 78.6 °F 74.4 °F 29.97 in SSW 2.4 mph 6 mph 86.9% 0.00 in 679 W/m2
10:04 79 °F 74.2 °F 29.97 in South 1.5 mph 4 mph 85.2% 0.00 in 690 W/m2
10:09 79.7 °F 74.1 °F 29.97 in SE 1.4 mph 4 mph 82.9% 0.00 in 702 W/m2
10:14 80.5 °F 74.1 °F 29.97 in South 1.7 mph 3 mph 80.9% 0.00 in 711 W/m2
10:19 81.1 °F 74 °F 29.97 in South 1.1 mph 3 mph 78.9% 0.00 in 725 W/m2
10:24 82 °F 73.9 °F 29.97 in SSW 1.7 mph 5 mph 76.5% 0.00 in 737 W/m2
10:29 82.6 °F 73.7 °F 29.97 in SW 2.9 mph 6 mph 74.4% 0.00 in 750 W/m2
10:34 83 °F 72.7 °F 29.96 in SSW 2.4 mph 5 mph 71% 0.00 in 760 W/m2
10:39 83.3 °F 72.7 °F 29.96 in SSW 1 mph 5 mph 70.4% 0.00 in 769 W/m2
10:44 83.9 °F 72.7 °F 29.97 in SSW 1.8 mph 5 mph 69.1% 0.00 in 778 W/m2
10:49 84.4 °F 73.1 °F 29.97 in South 1.2 mph 3 mph 68.8% 0.00 in 781 W/m2
10:54 85.4 °F 73.8 °F 29.97 in SW 0.6 mph 3 mph 68.4% 0.00 in 799 W/m2
10:59 86 °F 73.1 °F 29.97 in SSW 1.4 mph 4 mph 65.6% 0.00 in 806 W/m2
11:04 86.2 °F 73.1 °F 29.96 in South 2 mph 6 mph 65.1% 0.00 in 815 W/m2
11:09 86 °F 73.1 °F 29.96 in South 1.1 mph 6 mph 65.4% 0.00 in 820 W/m2
11:14 86.1 °F 73.1 °F 29.96 in SW 1.8 mph 5 mph 65.2% 0.00 in 829 W/m2
11:19 86.1 °F 72.4 °F 29.96 in SW 1.7 mph 6 mph 63.7% 0.00 in 836 W/m2
11:24 85.8 °F 72 °F 29.96 in South 2.1 mph 6 mph 63.4% 0.00 in 838 W/m2
11:29 85.7 °F 71.8 °F 29.96 in SSW 2.2 mph 5 mph 63.3% 0.00 in 843 W/m2
11:34 85.5 °F 70.6 °F 29.95 in South 1.4 mph 4 mph 61.2% 0.00 in 843 W/m2
11:39 85.8 °F 70.7 °F 29.95 in SSE 0.6 mph 2 mph 60.9% 0.00 in 853 W/m2
11:44 86.3 °F 70.2 °F 29.95 in South 1.3 mph 3 mph 58.7% 0.00 in 859 W/m2
11:49 86.5 °F 69.2 °F 29.95 in South 1.3 mph 3 mph 56.6% 0.00 in 862 W/m2
11:54 86.8 °F 68.2 °F 29.95 in South 1.2 mph 3 mph 54.1% 0.00 in 866 W/m2
11:59 87.1 °F 67.5 °F 29.95 in SSW 0.9 mph 3 mph 52.3% 0.00 in 867 W/m2
12:04 87.5 °F 67.3 °F 29.94 in ESE 0.6 mph 2 mph 51.4% 0.00 in 869 W/m2
12:09 87.9 °F 66.6 °F 29.94 in NE 0.4 mph 2 mph 49.3% 0.00 in 869 W/m2
12:14 88.4 °F 68.7 °F 29.94 in ENE 0.6 mph 2 mph 52.3% 0.00 in 871 W/m2
12:19 88.6 °F 68.4 °F 29.94 in SSE 1.5 mph 5 mph 51.4% 0.00 in 869 W/m2
12:24 88.6 °F 67.9 °F 29.94 in South 1.3 mph 5 mph 50.6% 0.00 in 852 W/m2
12:29 88.6 °F 68.8 °F 29.94 in SSE 0.9 mph 3 mph 52% 0.00 in 864 W/m2
12:34 88.8 °F 70 °F 29.94 in SSW 1.7 mph 4 mph 54.1% 0.00 in 862 W/m2
12:39 89 °F 69.8 °F 29.94 in SSW 0.7 mph 3 mph 53.4% 0.00 in 855 W/m2
12:44 89.4 °F 70.6 °F 29.94 in South 0.6 mph 2 mph 54.2% 0.00 in 867 W/m2
12:49 89.3 °F 71.2 °F 29.93 in SSW 1.7 mph 6 mph 55.3% 0.00 in 866 W/m2
12:54 89.6 °F 71.8 °F 29.93 in SW 1.5 mph 6 mph 56% 0.00 in 867 W/m2
12:59 89.7 °F 71.4 °F 29.93 in WSW 1.8 mph 5 mph 55% 0.00 in 864 W/m2
13:04 89.7 °F 71.4 °F 29.93 in West 0.8 mph 5 mph 55% 0.00 in 859 W/m2
13:09 89.7 °F 71.6 °F 29.93 in NNW 0.4 mph 2 mph 55.4% 0.00 in 857 W/m2
13:14 89.9 °F 70.7 °F 29.93 in WSW 0.6 mph 2 mph 53.4% 0.00 in 857 W/m2
13:19 89.9 °F 70.6 °F 29.93 in SE 0.7 mph 2 mph 53.1% 0.00 in 857 W/m2
13:24 90.3 °F 70.8 °F 29.93 in SW 0.7 mph 3 mph 52.9% 0.00 in 850 W/m2
13:29 90.5 °F 71.1 °F 29.93 in SW 0.6 mph 2 mph 53.1% 0.00 in 845 W/m2
13:34 90.5 °F 69.4 °F 29.92 in SSW 0.5 mph 2 mph 50.2% 0.00 in 839 W/m2
13:39 90.5 °F 68.5 °F 29.92 in SW 1.1 mph 3 mph 48.6% 0.00 in 845 W/m2
13:44 90.6 °F 69.7 °F 29.92 in SSW 1.4 mph 4 mph 50.4% 0.00 in 839 W/m2
13:49 90.7 °F 69.6 °F 29.92 in SSW 0.2 mph 3 mph 50.2% 0.00 in 820 W/m2
13:54 90.6 °F 70.1 °F 29.92 in SSW 1.1 mph 6 mph 51.2% 0.00 in 820 W/m2
13:59 90.7 °F 71.4 °F 29.92 in WNW 0.6 mph 3 mph 53.3% 0.00 in 818 W/m2
14:04 90.7 °F 72 °F 29.92 in West 1 mph 3 mph 54.3% 0.00 in 808 W/m2
14:09 90.5 °F 71.5 °F 29.92 in SSW 1.8 mph 9 mph 53.9% 0.00 in 795 W/m2
14:14 90.2 °F 71.1 °F 29.92 in West 1.4 mph 9 mph 53.6% 0.00 in 785 W/m2
14:19 89.9 °F 71.3 °F 29.91 in SW 2 mph 6 mph 54.4% 0.00 in 769 W/m2
14:24 89.8 °F 71.4 °F 29.91 in NW 0.3 mph 6 mph 55% 0.00 in 769 W/m2
14:29 89.7 °F 72.7 °F 29.91 in SW 2 mph 7 mph 57.5% 0.00 in 702 W/m2
14:34 89.6 °F 72.8 °F 29.91 in West 1.2 mph 7 mph 57.8% 0.00 in 361 W/m2
14:39 89.6 °F 73.2 °F 29.91 in SW 1.3 mph 5 mph 58.6% 0.00 in 167 W/m2
14:44 89.6 °F 72.6 °F 29.91 in SW 3.5 mph 10 mph 57.5% 0.00 in 259 W/m2
14:49 89.3 °F 72.2 °F 29.91 in SW 1.2 mph 6 mph 57.2% 0.00 in 282 W/m2
14:54 89.2 °F 72.8 °F 29.91 in SW 1.9 mph 7 mph 58.6% 0.00 in 282 W/m2
14:59 89 °F 73.2 °F 29.91 in WSW 1.2 mph 6 mph 59.7% 0.00 in 348 W/m2
15:04 89 °F 73.6 °F 29.91 in SW 1.1 mph 5 mph 60.6% 0.00 in 348 W/m2
15:09 88.9 °F 72.6 °F 29.91 in SW 2.6 mph 6 mph 58.9% 0.00 in 102 W/m2
15:14 88.7 °F 71.8 °F 29.91 in SW 2.4 mph 7 mph 57.7% 0.00 in 83 W/m2
15:19 88.4 °F 71.2 °F 29.90 in SW 3.2 mph 8 mph 56.9% 0.00 in 81 W/m2
15:24 88.4 °F 71.3 °F 29.90 in SW 2.5 mph 6 mph 57.2% 0.00 in 106 W/m2
15:29 88.4 °F 71.3 °F 29.90 in SW 1.8 mph 6 mph 57% 0.00 in 118 W/m2
15:34 88.2 °F 71.5 °F 29.90 in WSW 1.2 mph 6 mph 57.8% 0.00 in 90 W/m2
15:39 88.2 °F 71.5 °F 29.90 in NW 0.6 mph 2 mph 58% 0.00 in 79 W/m2
15:44 88 °F 71.1 °F 29.90 in West 0.5 mph 2 mph 57.5% 0.00 in 104 W/m2
15:49 88 °F 70.8 °F 29.90 in SW 0.8 mph 2 mph 56.8% 0.00 in 153 W/m2
15:54 88.2 °F 70.5 °F 29.90 in SW 0.9 mph 3 mph 56% 0.00 in 394 W/m2
15:59 88.2 °F 71.2 °F 29.90 in WSW 0.7 mph 2 mph 57.3% 0.00 in 179 W/m2
16:04 88.2 °F 70.6 °F 29.89 in WNW 0.6 mph 2 mph 56.2% 0.00 in 88 W/m2
16:09 88.2 °F 71.3 °F 29.89 in WNW 0.6 mph 2 mph 57.5% 0.00 in 77 W/m2
16:14 88.2 °F 71.8 °F 29.89 in NW 0.1 mph 1 mph 58.4% 0.00 in 86 W/m2
16:19 88.2 °F 71.6 °F 29.88 in WSW 0.2 mph 2 mph 58% 0.00 in 77 W/m2
16:24 88.2 °F 72 °F 29.88 in West 0.7 mph 2 mph 58.8% 0.00 in 77 W/m2
16:29 88.2 °F 72.1 °F 29.88 in SW 2 mph 5 mph 59.1% 0.00 in 67 W/m2
16:34 88.1 °F 72 °F 29.88 in SW 1.7 mph 6 mph 59.1% 0.00 in 77 W/m2
16:39 88 °F 72.6 °F 29.88 in WSW 0.2 mph 2 mph 60.4% 0.00 in 106 W/m2
16:44 88 °F 73.4 °F 29.88 in Calm   1 mph 62.2% 0.00 in 128 W/m2
16:49 87.8 °F 73.3 °F 29.88 in West 1.1 mph 3 mph 62.2% 0.00 in 70 W/m2
16:54 87.8 °F 72.9 °F 29.88 in WSW 0.5 mph 5 mph 61.5% 0.00 in 55 W/m2
16:59 87.8 °F 73.1 °F 29.88 in South 0.9 mph 5 mph 61.9% 0.00 in 53 W/m2
17:04 87.8 °F 73.1 °F 29.88 in West 0.3 mph 2 mph 61.8% 0.00 in 51 W/m2
17:09 87.8 °F 72.6 °F 29.88 in WNW 0.4 mph 2 mph 60.9% 0.00 in 49 W/m2
17:14 87.7 °F 72.8 °F 29.88 in Calm   1 mph 61.5% 0.00 in 70 W/m2
17:19 87.6 °F 72.7 °F 29.88 in Calm     61.3% 0.00 in 48 W/m2
17:24 87.5 °F 72.5 °F 29.88 in Calm     61.1% 0.00 in 46 W/m2
17:29 87.4 °F 72.7 °F 29.88 in Calm     61.7% 0.00 in 44 W/m2
17:34 87.4 °F 72.3 °F 29.88 in Calm   1 mph 60.9% 0.00 in 44 W/m2
17:39 87.3 °F 72.9 °F 29.88 in Calm     62.3% 0.00 in 42 W/m2
17:44 87.2 °F 73.2 °F 29.88 in Calm     63.3% 0.00 in 42 W/m2
17:49 87.2 °F 73.7 °F 29.88 in West 0.1 mph 1 mph 64.3% 0.00 in 40 W/m2
17:54 87 °F 73.7 °F 29.88 in Calm   1 mph 64.7% 0.00 in 40 W/m2
17:59 86.7 °F 73.5 °F 29.88 in Calm     64.9% 0.00 in 40 W/m2
18:04 86.5 °F 73.5 °F 29.88 in Calm     65.4% 0.00 in 39 W/m2
18:09 86.1 °F 73.4 °F 29.88 in Calm     65.9% 0.00 in 39 W/m2
18:14 85.8 °F 73.4 °F 29.88 in Calm     66.6% 0.00 in 37 W/m2
18:19 85.3 °F 73.3 °F 29.88 in Calm     67.5% 0.00 in 35 W/m2
18:24 84.9 °F 73.5 °F 29.88 in Calm     68.8% 0.00 in 33 W/m2
18:29 84.3 °F 73.3 °F 29.88 in Calm     69.5% 0.00 in 33 W/m2
18:34 83.9 °F 73.2 °F 29.88 in Calm     70.1% 0.00 in 32 W/m2
18:39 83.5 °F 73.5 °F 29.88 in Calm     71.8% 0.00 in 30 W/m2
18:44 83 °F 73.6 °F 29.88 in Calm     73.2% 0.00 in 30 W/m2
18:49 82.6 °F 73.8 °F 29.88 in Calm     74.8% 0.00 in 30 W/m2
18:54 82.3 °F 73.9 °F 29.88 in Calm     75.8% 0.00 in 28 W/m2
18:59 81.9 °F 74.2 °F 29.88 in Calm     77.7% 0.00 in 26 W/m2
19:04 81.5 °F 74.6 °F 29.88 in Calm     79.8% 0.00 in 26 W/m2
19:09 81.1 °F 74.5 °F 29.88 in Calm     80.4% 0.00 in 23 W/m2
19:14 80.7 °F 74.5 °F 29.88 in Calm     81.5% 0.00 in 19 W/m2
19:19 80.4 °F 74.5 °F 29.88 in Calm     82.3% 0.00 in 18 W/m2
19:24 80 °F 74.4 °F 29.88 in Calm     83% 0.00 in 18 W/m2
19:29 79.8 °F 74.6 °F 29.89 in Calm     84% 0.00 in 18 W/m2
19:34 79.7 °F 74.4 °F 29.89 in Calm     84% 0.00 in 11 W/m2
19:39 79.5 °F 74.6 °F 29.89 in Calm     85% 0.00 in 9 W/m2
19:44 79.3 °F 74.4 °F 29.89 in Calm     85% 0.00 in 7 W/m2
19:49 79 °F 74.3 °F 29.88 in Calm     85.4% 0.00 in 5 W/m2
19:54 78.6 °F 74.1 °F 29.88 in Calm     86% 0.00 in 5 W/m2
19:59 78.2 °F 73.5 °F 29.89 in West 0.1 mph 1 mph 85.6% 0.00 in 0 W/m2
20:04 77.7 °F 73.2 °F 29.89 in Calm     86% 0.00 in 0 W/m2
20:09 77.5 °F 73.2 °F 29.89 in Calm     86.6% 0.00 in 0 W/m2
20:14 77.1 °F 73 °F 29.89 in Calm     87% 0.00 in 0 W/m2
20:19 76.8 °F 72.8 °F 29.89 in Calm     87.5% 0.00 in 0 W/m2
20:24 76.7 °F 72.9 °F 29.89 in Calm     88% 0.00 in 0 W/m2
20:29 76.5 °F 72.9 °F 29.90 in Calm     88.7% 0.00 in 0 W/m2
20:34 76.4 °F 72.9 °F 29.90 in Calm     89% 0.00 in 0 W/m2
20:39 76.2 °F 72.7 °F 29.90 in Calm     89% 0.00 in 0 W/m2
20:44 76 °F 72.7 °F 29.91 in Calm     89.6% 0.00 in 0 W/m2
20:49 75.8 °F 72.6 °F 29.91 in Calm     90% 0.00 in 0 W/m2
20:54 75.6 °F 72.4 °F 29.91 in Calm     90% 0.00 in 0 W/m2
20:59 75.4 °F 72.3 °F 29.92 in Calm     90.2% 0.00 in 0 W/m2
21:04 75.2 °F 72.4 °F 29.92 in Calm     91% 0.00 in 0 W/m2
21:09 75 °F 72.2 °F 29.92 in Calm     91% 0.00 in 0 W/m2
21:14 74.8 °F 72.1 °F 29.92 in Calm     91.2% 0.00 in 0 W/m2
21:19 74.7 °F 72.2 °F 29.92 in Calm     92% 0.00 in 0 W/m2
21:24 74.6 °F 72.1 °F 29.92 in Calm     92% 0.00 in 0 W/m2
21:29 74.6 °F 72.1 °F 29.93 in Calm     92% 0.00 in 0 W/m2
21:34 74.5 °F 72.3 °F 29.93 in Calm     92.8% 0.00 in 0 W/m2
21:39 74.4 °F 72.3 °F 29.93 in Calm     93% 0.00 in 0 W/m2
21:44 74.4 °F 72.3 °F 29.93 in Calm     93.1% 0.00 in 0 W/m2
21:49 74.3 °F 72.4 °F 29.93 in Calm     94% 0.00 in 0 W/m2
21:54 74.2 °F 72.4 °F 29.93 in Calm     94% 0.00 in 0 W/m2
21:59 74.2 °F 72.4 °F 29.93 in Calm     94% 0.00 in 0 W/m2
22:04 74.2 °F 72.3 °F 29.93 in Calm     94% 0.00 in 0 W/m2
22:09 74 °F 72.2 °F 29.93 in Calm     94% 0.00 in 0 W/m2
22:14 74 °F 72.2 °F 29.93 in Calm     94% 0.00 in 0 W/m2
22:19 74 °F 72.2 °F 29.92 in Calm     94% 0.00 in 0 W/m2
22:24 74 °F 72.2 °F 29.92 in Calm     94% 0.00 in 0 W/m2
22:29 73.9 °F 72.2 °F 29.92 in Calm     94.5% 0.00 in 0 W/m2
22:34 73.9 °F 72.4 °F 29.92 in Calm     95% 0.00 in 0 W/m2
22:39 73.8 °F 72.3 °F 29.92 in Calm     95% 0.00 in 0 W/m2
22:44 73.7 °F 72.2 °F 29.92 in Calm     95% 0.00 in 0 W/m2
22:49 73.5 °F 72 °F 29.92 in Calm     95% 0.00 in 0 W/m2
22:54 73.5 °F 72 °F 29.92 in Calm     95.2% 0.00 in 0 W/m2
22:59 73.4 °F 72.2 °F 29.93 in Calm     96% 0.00 in 0 W/m2
23:04 73.3 °F 72.1 °F 29.93 in Calm     96% 0.00 in 0 W/m2
23:09 73.2 °F 72 °F 29.93 in Calm     96% 0.00 in 0 W/m2
23:14 73 °F 71.8 °F 29.93 in Calm     96% 0.00 in 0 W/m2
23:19 72.9 °F 71.7 °F 29.92 in Calm     96% 0.00 in 0 W/m2
23:24 72.8 °F 71.7 °F 29.92 in Calm     96.5% 0.00 in 0 W/m2
23:29 72.8 °F 71.9 °F 29.92 in Calm     97% 0.00 in 0 W/m2
23:34 72.8 °F 71.9 °F 29.92 in Calm     97% 0.00 in 0 W/m2
23:39 72.7 °F 71.8 °F 29.92 in Calm     97% 0.00 in 0 W/m2
23:44 72.7 °F 71.8 °F 29.92 in Calm     97% 0.00 in 0 W/m2
23:49 72.5 °F 71.6 °F 29.92 in Calm     97% 0.00 in 0 W/m2
23:54 72.3 °F 71.5 °F 29.92 in Calm     97% 0.00 in 0 W/m2
23:59 72.2 °F 71.3 °F 29.93 in Calm     97% 0.00 in 0 W/m2
Lisbon, New Hampshire, USA
Compliments of Weather Underground - 4 mb